sensor_id;sensor_type;location;lat;lon;timestamp;P1;durP1;ratioP1;P2;durP2;ratioP2
25758;SDS011;13604;52.496;13.456;2022-11-11T00:01:12;21.13;;;4.55;;
25758;SDS011;13604;52.496;13.456;2022-11-11T00:03:39;18.73;;;3.60;;
25758;SDS011;13604;52.496;13.456;2022-11-11T00:06:06;19.77;;;4.00;;
25758;SDS011;13604;52.496;13.456;2022-11-11T00:08:34;18.83;;;4.00;;
25758;SDS011;13604;52.496;13.456;2022-11-11T00:11:00;20.90;;;4.05;;
25758;SDS011;13604;52.496;13.456;2022-11-11T00:13:26;12.18;;;3.80;;
25758;SDS011;13604;52.496;13.456;2022-11-11T00:15:52;12.38;;;4.00;;
25758;SDS011;13604;52.496;13.456;2022-11-11T00:18:17;14.82;;;4.20;;
25758;SDS011;13604;52.496;13.456;2022-11-11T00:21:01;17.05;;;4.32;;
25758;SDS011;13604;52.496;13.456;2022-11-11T00:23:45;14.77;;;3.90;;
25758;SDS011;13604;52.496;13.456;2022-11-11T00:26:29;18.93;;;3.90;;
25758;SDS011;13604;52.496;13.456;2022-11-11T00:28:54;19.55;;;4.50;;
25758;SDS011;13604;52.496;13.456;2022-11-11T00:31:19;10.65;;;3.95;;
25758;SDS011;13604;52.496;13.456;2022-11-11T00:33:45;14.15;;;4.20;;
25758;SDS011;13604;52.496;13.456;2022-11-11T00:36:10;11.38;;;3.90;;
25758;SDS011;13604;52.496;13.456;2022-11-11T00:38:35;17.98;;;4.13;;
25758;SDS011;13604;52.496;13.456;2022-11-11T00:41:10;11.73;;;3.58;;
25758;SDS011;13604;52.496;13.456;2022-11-11T00:43:43;17.98;;;4.13;;
25758;SDS011;13604;52.496;13.456;2022-11-11T00:46:09;8.98;;;3.80;;
25758;SDS011;13604;52.496;13.456;2022-11-11T00:48:54;13.98;;;4.07;;
25758;SDS011;13604;52.496;13.456;2022-11-11T00:51:54;14.20;;;3.97;;
25758;SDS011;13604;52.496;13.456;2022-11-11T00:54:19;13.18;;;4.45;;
25758;SDS011;13604;52.496;13.456;2022-11-11T00:56:45;18.33;;;5.25;;
25758;SDS011;13604;52.496;13.456;2022-11-11T00:59:10;16.30;;;4.53;;
25758;SDS011;13604;52.496;13.456;2022-11-11T01:01:35;12.45;;;4.03;;
25758;SDS011;13604;52.496;13.456;2022-11-11T01:04:01;14.77;;;4.38;;
25758;SDS011;13604;52.496;13.456;2022-11-11T01:06:27;14.15;;;4.03;;
25758;SDS011;13604;52.496;13.456;2022-11-11T01:08:52;17.00;;;4.80;;
25758;SDS011;13604;52.496;13.456;2022-11-11T01:11:19;16.33;;;4.72;;
25758;SDS011;13604;52.496;13.456;2022-11-11T01:13:47;11.77;;;4.05;;
25758;SDS011;13604;52.496;13.456;2022-11-11T01:16:13;24.30;;;4.65;;
25758;SDS011;13604;52.496;13.456;2022-11-11T01:18:41;15.98;;;4.32;;
25758;SDS011;13604;52.496;13.456;2022-11-11T01:23:36;16.50;;;4.47;;
25758;SDS011;13604;52.496;13.456;2022-11-11T01:26:13;13.27;;;4.60;;
25758;SDS011;13604;52.496;13.456;2022-11-11T01:28:40;14.32;;;3.97;;
25758;SDS011;13604;52.496;13.456;2022-11-11T01:31:07;15.63;;;3.88;;
25758;SDS011;13604;52.496;13.456;2022-11-11T01:33:35;11.25;;;4.00;;
25758;SDS011;13604;52.496;13.456;2022-11-11T01:36:01;13.05;;;4.80;;
25758;SDS011;13604;52.496;13.456;2022-11-11T01:38:28;12.57;;;3.97;;
25758;SDS011;13604;52.496;13.456;2022-11-11T01:40:53;13.43;;;4.18;;
25758;SDS011;13604;52.496;13.456;2022-11-11T01:43:20;11.73;;;4.03;;
25758;SDS011;13604;52.496;13.456;2022-11-11T01:48:32;15.13;;;5.18;;
25758;SDS011;13604;52.496;13.456;2022-11-11T01:51:36;15.70;;;4.18;;
25758;SDS011;13604;52.496;13.456;2022-11-11T01:54:10;11.90;;;4.10;;
25758;SDS011;13604;52.496;13.456;2022-11-11T01:56:39;17.90;;;4.03;;
25758;SDS011;13604;52.496;13.456;2022-11-11T01:59:07;19.02;;;5.03;;
25758;SDS011;13604;52.496;13.456;2022-11-11T02:01:35;11.57;;;4.22;;
25758;SDS011;13604;52.496;13.456;2022-11-11T02:04:01;15.40;;;4.65;;
25758;SDS011;13604;52.496;13.456;2022-11-11T02:06:51;12.43;;;4.80;;
25758;SDS011;13604;52.496;13.456;2022-11-11T02:09:20;15.15;;;4.00;;
25758;SDS011;13604;52.496;13.456;2022-11-11T02:11:46;10.00;;;3.78;;
25758;SDS011;13604;52.496;13.456;2022-11-11T02:14:33;10.13;;;3.58;;
25758;SDS011;13604;52.496;13.456;2022-11-11T02:19:41;15.20;;;4.07;;
25758;SDS011;13604;52.496;13.456;2022-11-11T02:22:10;15.43;;;3.92;;
25758;SDS011;13604;52.496;13.456;2022-11-11T02:24:41;17.88;;;4.22;;
25758;SDS011;13604;52.496;13.456;2022-11-11T02:27:09;12.80;;;3.88;;
25758;SDS011;13604;52.496;13.456;2022-11-11T02:29:38;15.57;;;4.18;;
25758;SDS011;13604;52.496;13.456;2022-11-11T02:32:05;17.38;;;3.90;;
25758;SDS011;13604;52.496;13.456;2022-11-11T02:34:30;12.02;;;5.00;;
25758;SDS011;13604;52.496;13.456;2022-11-11T02:36:57;10.98;;;4.15;;
25758;SDS011;13604;52.496;13.456;2022-11-11T02:39:25;14.05;;;4.03;;
25758;SDS011;13604;52.496;13.456;2022-11-11T02:41:51;11.60;;;3.78;;
25758;SDS011;13604;52.496;13.456;2022-11-11T02:44:22;11.60;;;4.45;;
25758;SDS011;13604;52.496;13.456;2022-11-11T02:46:48;12.98;;;4.05;;
25758;SDS011;13604;52.496;13.456;2022-11-11T02:49:14;12.15;;;4.47;;
25758;SDS011;13604;52.496;13.456;2022-11-11T02:51:39;14.93;;;4.13;;
25758;SDS011;13604;52.496;13.456;2022-11-11T02:54:04;13.23;;;4.13;;
25758;SDS011;13604;52.496;13.456;2022-11-11T02:56:30;14.40;;;4.35;;
25758;SDS011;13604;52.496;13.456;2022-11-11T02:59:13;15.93;;;4.57;;
25758;SDS011;13604;52.496;13.456;2022-11-11T03:01:39;17.05;;;4.80;;
25758;SDS011;13604;52.496;13.456;2022-11-11T03:04:04;12.82;;;3.83;;
25758;SDS011;13604;52.496;13.456;2022-11-11T03:06:30;13.48;;;4.60;;
25758;SDS011;13604;52.496;13.456;2022-11-11T03:08:55;19.52;;;5.20;;
25758;SDS011;13604;52.496;13.456;2022-11-11T03:11:21;12.77;;;4.57;;
25758;SDS011;13604;52.496;13.456;2022-11-11T03:13:55;11.38;;;4.28;;
25758;SDS011;13604;52.496;13.456;2022-11-11T03:16:21;12.13;;;4.70;;
25758;SDS011;13604;52.496;13.456;2022-11-11T03:19:06;15.07;;;4.75;;
25758;SDS011;13604;52.496;13.456;2022-11-11T03:21:31;15.75;;;5.03;;
25758;SDS011;13604;52.496;13.456;2022-11-11T03:23:56;16.80;;;4.40;;
25758;SDS011;13604;52.496;13.456;2022-11-11T03:26:22;20.33;;;5.32;;
25758;SDS011;13604;52.496;13.456;2022-11-11T03:28:47;12.10;;;5.13;;
25758;SDS011;13604;52.496;13.456;2022-11-11T03:31:13;11.80;;;4.18;;
25758;SDS011;13604;52.496;13.456;2022-11-11T03:33:38;15.25;;;5.00;;
25758;SDS011;13604;52.496;13.456;2022-11-11T03:36:04;16.25;;;4.82;;
25758;SDS011;13604;52.496;13.456;2022-11-11T03:38:29;15.48;;;4.57;;
25758;SDS011;13604;52.496;13.456;2022-11-11T03:40:55;14.32;;;4.57;;
25758;SDS011;13604;52.496;13.456;2022-11-11T03:43:23;13.55;;;4.30;;
25758;SDS011;13604;52.496;13.456;2022-11-11T03:45:50;14.52;;;4.88;;
25758;SDS011;13604;52.496;13.456;2022-11-11T03:48:17;18.13;;;4.68;;
25758;SDS011;13604;52.496;13.456;2022-11-11T03:50:42;13.10;;;4.22;;
25758;SDS011;13604;52.496;13.456;2022-11-11T03:53:08;10.65;;;4.75;;
25758;SDS011;13604;52.496;13.456;2022-11-11T03:55:33;15.02;;;4.30;;
25758;SDS011;13604;52.496;13.456;2022-11-11T03:57:58;12.48;;;4.00;;
25758;SDS011;13604;52.496;13.456;2022-11-11T04:00:24;12.13;;;4.57;;
25758;SDS011;13604;52.496;13.456;2022-11-11T04:02:55;12.95;;;4.80;;
25758;SDS011;13604;52.496;13.456;2022-11-11T04:05:47;12.18;;;4.22;;
25758;SDS011;13604;52.496;13.456;2022-11-11T04:08:27;12.70;;;4.15;;
25758;SDS011;13604;52.496;13.456;2022-11-11T04:11:11;11.52;;;3.97;;
25758;SDS011;13604;52.496;13.456;2022-11-11T04:13:42;16.25;;;4.25;;
25758;SDS011;13604;52.496;13.456;2022-11-11T04:16:29;12.77;;;4.22;;
25758;SDS011;13604;52.496;13.456;2022-11-11T04:18:54;19.50;;;4.85;;
25758;SDS011;13604;52.496;13.456;2022-11-11T04:21:38;11.97;;;4.13;;
25758;SDS011;13604;52.496;13.456;2022-11-11T04:24:10;10.93;;;4.40;;
25758;SDS011;13604;52.496;13.456;2022-11-11T04:26:56;15.00;;;4.28;;
25758;SDS011;13604;52.496;13.456;2022-11-11T04:29:23;12.73;;;4.10;;
25758;SDS011;13604;52.496;13.456;2022-11-11T04:31:55;10.32;;;3.80;;
25758;SDS011;13604;52.496;13.456;2022-11-11T04:34:44;11.30;;;4.50;;
25758;SDS011;13604;52.496;13.456;2022-11-11T04:37:14;12.05;;;4.10;;
25758;SDS011;13604;52.496;13.456;2022-11-11T04:39:40;13.23;;;4.15;;
25758;SDS011;13604;52.496;13.456;2022-11-11T04:42:24;10.80;;;4.03;;
25758;SDS011;13604;52.496;13.456;2022-11-11T04:44:50;19.15;;;4.40;;
25758;SDS011;13604;52.496;13.456;2022-11-11T04:47:34;12.15;;;4.93;;
25758;SDS011;13604;52.496;13.456;2022-11-11T04:49:59;13.93;;;4.50;;
25758;SDS011;13604;52.496;13.456;2022-11-11T04:52:24;12.00;;;4.13;;
25758;SDS011;13604;52.496;13.456;2022-11-11T04:54:50;18.85;;;4.65;;
25758;SDS011;13604;52.496;13.456;2022-11-11T04:57:37;10.52;;;4.25;;
25758;SDS011;13604;52.496;13.456;2022-11-11T05:00:03;14.85;;;4.20;;
25758;SDS011;13604;52.496;13.456;2022-11-11T05:02:29;17.63;;;4.32;;
25758;SDS011;13604;52.496;13.456;2022-11-11T05:05:12;17.03;;;4.70;;
25758;SDS011;13604;52.496;13.456;2022-11-11T05:07:38;15.35;;;4.45;;
25758;SDS011;13604;52.496;13.456;2022-11-11T05:10:21;14.37;;;4.70;;
25758;SDS011;13604;52.496;13.456;2022-11-11T05:12:47;10.80;;;4.45;;
25758;SDS011;13604;52.496;13.456;2022-11-11T05:15:12;11.27;;;4.28;;
25758;SDS011;13604;52.496;13.456;2022-11-11T05:17:56;14.37;;;4.67;;
25758;SDS011;13604;52.496;13.456;2022-11-11T05:20:39;14.10;;;4.30;;
25758;SDS011;13604;52.496;13.456;2022-11-11T05:23:23;16.83;;;3.58;;
25758;SDS011;13604;52.496;13.456;2022-11-11T05:26:08;11.20;;;4.15;;
25758;SDS011;13604;52.496;13.456;2022-11-11T05:28:34;16.90;;;3.70;;
25758;SDS011;13604;52.496;13.456;2022-11-11T05:30:59;17.27;;;4.85;;
25758;SDS011;13604;52.496;13.456;2022-11-11T05:33:24;10.27;;;4.57;;
25758;SDS011;13604;52.496;13.456;2022-11-11T05:35:50;12.60;;;4.57;;
25758;SDS011;13604;52.496;13.456;2022-11-11T05:38:15;15.90;;;6.45;;
25758;SDS011;13604;52.496;13.456;2022-11-11T05:40:46;10.43;;;4.00;;
25758;SDS011;13604;52.496;13.456;2022-11-11T05:43:12;13.52;;;4.28;;
25758;SDS011;13604;52.496;13.456;2022-11-11T05:45:37;20.38;;;4.53;;
25758;SDS011;13604;52.496;13.456;2022-11-11T05:48:05;13.65;;;4.43;;
25758;SDS011;13604;52.496;13.456;2022-11-11T05:50:30;16.23;;;5.00;;
25758;SDS011;13604;52.496;13.456;2022-11-11T05:52:56;12.00;;;5.00;;
25758;SDS011;13604;52.496;13.456;2022-11-11T05:55:21;19.63;;;4.93;;
25758;SDS011;13604;52.496;13.456;2022-11-11T05:57:46;12.38;;;4.60;;
25758;SDS011;13604;52.496;13.456;2022-11-11T06:00:12;11.10;;;4.43;;
25758;SDS011;13604;52.496;13.456;2022-11-11T06:02:37;15.07;;;4.93;;
25758;SDS011;13604;52.496;13.456;2022-11-11T06:05:03;14.32;;;5.00;;
25758;SDS011;13604;52.496;13.456;2022-11-11T06:07:29;15.45;;;4.88;;
25758;SDS011;13604;52.496;13.456;2022-11-11T06:09:55;13.05;;;4.70;;
25758;SDS011;13604;52.496;13.456;2022-11-11T06:12:41;14.88;;;4.45;;
25758;SDS011;13604;52.496;13.456;2022-11-11T06:15:25;12.63;;;4.72;;
25758;SDS011;13604;52.496;13.456;2022-11-11T06:17:51;12.32;;;5.15;;
25758;SDS011;13604;52.496;13.456;2022-11-11T06:20:16;20.48;;;4.72;;
25758;SDS011;13604;52.496;13.456;2022-11-11T06:22:42;16.48;;;5.25;;
25758;SDS011;13604;52.496;13.456;2022-11-11T06:25:25;15.52;;;5.28;;
25758;SDS011;13604;52.496;13.456;2022-11-11T06:28:09;19.63;;;5.55;;
25758;SDS011;13604;52.496;13.456;2022-11-11T06:30:35;15.75;;;4.97;;
25758;SDS011;13604;52.496;13.456;2022-11-11T06:33:01;16.05;;;5.07;;
25758;SDS011;13604;52.496;13.456;2022-11-11T06:35:26;17.80;;;5.28;;
25758;SDS011;13604;52.496;13.456;2022-11-11T06:37:52;15.30;;;5.22;;
25758;SDS011;13604;52.496;13.456;2022-11-11T06:40:17;12.13;;;4.85;;
25758;SDS011;13604;52.496;13.456;2022-11-11T06:42:43;15.80;;;4.85;;
25758;SDS011;13604;52.496;13.456;2022-11-11T06:45:08;10.73;;;4.60;;
25758;SDS011;13604;52.496;13.456;2022-11-11T06:47:34;14.25;;;5.45;;
25758;SDS011;13604;52.496;13.456;2022-11-11T06:49:59;16.65;;;4.57;;
25758;SDS011;13604;52.496;13.456;2022-11-11T06:52:24;16.35;;;4.95;;
25758;SDS011;13604;52.496;13.456;2022-11-11T06:54:49;15.75;;;5.25;;
25758;SDS011;13604;52.496;13.456;2022-11-11T06:57:15;17.63;;;4.50;;
25758;SDS011;13604;52.496;13.456;2022-11-11T06:59:40;13.57;;;4.50;;
25758;SDS011;13604;52.496;13.456;2022-11-11T07:02:07;8.13;;;4.55;;
25758;SDS011;13604;52.496;13.456;2022-11-11T07:04:36;12.40;;;5.22;;
25758;SDS011;13604;52.496;13.456;2022-11-11T07:07:01;15.55;;;5.07;;
25758;SDS011;13604;52.496;13.456;2022-11-11T07:09:27;10.90;;;4.20;;
25758;SDS011;13604;52.496;13.456;2022-11-11T07:11:52;13.60;;;5.15;;
25758;SDS011;13604;52.496;13.456;2022-11-11T07:14:18;10.38;;;4.63;;
25758;SDS011;13604;52.496;13.456;2022-11-11T07:16:43;12.43;;;4.85;;
25758;SDS011;13604;52.496;13.456;2022-11-11T07:19:08;17.45;;;4.22;;
25758;SDS011;13604;52.496;13.456;2022-11-11T07:21:33;15.05;;;4.95;;
25758;SDS011;13604;52.496;13.456;2022-11-11T07:23:59;17.20;;;4.38;;
25758;SDS011;13604;52.496;13.456;2022-11-11T07:26:24;13.07;;;4.65;;
25758;SDS011;13604;52.496;13.456;2022-11-11T07:28:49;11.00;;;4.00;;
25758;SDS011;13604;52.496;13.456;2022-11-11T07:31:15;16.40;;;5.07;;
25758;SDS011;13604;52.496;13.456;2022-11-11T07:33:40;15.93;;;4.85;;
25758;SDS011;13604;52.496;13.456;2022-11-11T07:36:06;10.57;;;4.18;;
25758;SDS011;13604;52.496;13.456;2022-11-11T07:38:31;10.45;;;4.60;;
25758;SDS011;13604;52.496;13.456;2022-11-11T07:40:56;15.75;;;5.38;;
25758;SDS011;13604;52.496;13.456;2022-11-11T07:43:21;16.30;;;5.10;;
25758;SDS011;13604;52.496;13.456;2022-11-11T07:45:49;17.50;;;5.38;;
25758;SDS011;13604;52.496;13.456;2022-11-11T07:48:14;14.13;;;4.63;;
25758;SDS011;13604;52.496;13.456;2022-11-11T07:50:39;15.02;;;5.07;;
25758;SDS011;13604;52.496;13.456;2022-11-11T07:53:05;19.60;;;5.88;;
25758;SDS011;13604;52.496;13.456;2022-11-11T07:55:30;16.90;;;5.70;;
25758;SDS011;13604;52.496;13.456;2022-11-11T07:57:56;16.02;;;5.65;;
25758;SDS011;13604;52.496;13.456;2022-11-11T08:00:22;18.17;;;4.75;;
25758;SDS011;13604;52.496;13.456;2022-11-11T08:02:47;13.18;;;5.20;;
25758;SDS011;13604;52.496;13.456;2022-11-11T08:05:13;11.95;;;5.30;;
25758;SDS011;13604;52.496;13.456;2022-11-11T08:07:39;13.40;;;4.95;;
25758;SDS011;13604;52.496;13.456;2022-11-11T08:10:06;13.40;;;4.88;;
25758;SDS011;13604;52.496;13.456;2022-11-11T08:12:32;18.30;;;5.43;;
25758;SDS011;13604;52.496;13.456;2022-11-11T08:15:16;15.07;;;5.32;;
25758;SDS011;13604;52.496;13.456;2022-11-11T08:17:41;14.80;;;5.25;;
25758;SDS011;13604;52.496;13.456;2022-11-11T08:20:07;13.23;;;4.78;;
25758;SDS011;13604;52.496;13.456;2022-11-11T08:22:40;13.35;;;5.10;;
25758;SDS011;13604;52.496;13.456;2022-11-11T08:25:06;12.02;;;4.80;;
25758;SDS011;13604;52.496;13.456;2022-11-11T08:27:34;13.70;;;5.03;;
25758;SDS011;13604;52.496;13.456;2022-11-11T08:29:59;14.40;;;4.47;;
25758;SDS011;13604;52.496;13.456;2022-11-11T08:32:25;16.17;;;4.63;;
25758;SDS011;13604;52.496;13.456;2022-11-11T08:34:50;15.07;;;4.45;;
25758;SDS011;13604;52.496;13.456;2022-11-11T08:37:15;12.25;;;4.45;;
25758;SDS011;13604;52.496;13.456;2022-11-11T08:39:41;10.48;;;4.07;;
25758;SDS011;13604;52.496;13.456;2022-11-11T08:42:06;10.55;;;4.15;;
25758;SDS011;13604;52.496;13.456;2022-11-11T08:44:31;13.57;;;4.15;;
25758;SDS011;13604;52.496;13.456;2022-11-11T08:46:57;13.18;;;5.47;;
25758;SDS011;13604;52.496;13.456;2022-11-11T08:49:22;9.40;;;3.42;;
25758;SDS011;13604;52.496;13.456;2022-11-11T08:51:47;8.98;;;3.88;;
25758;SDS011;13604;52.496;13.456;2022-11-11T08:54:13;10.80;;;3.45;;
25758;SDS011;13604;52.496;13.456;2022-11-11T08:56:38;9.02;;;3.67;;
25758;SDS011;13604;52.496;13.456;2022-11-11T08:59:04;7.22;;;2.75;;
25758;SDS011;13604;52.496;13.456;2022-11-11T09:01:29;8.45;;;3.22;;
25758;SDS011;13604;52.496;13.456;2022-11-11T09:03:55;8.88;;;3.50;;
25758;SDS011;13604;52.496;13.456;2022-11-11T09:06:20;9.30;;;3.90;;
25758;SDS011;13604;52.496;13.456;2022-11-11T09:08:45;9.45;;;3.28;;
25758;SDS011;13604;52.496;13.456;2022-11-11T09:11:11;9.23;;;3.20;;
25758;SDS011;13604;52.496;13.456;2022-11-11T09:13:36;12.57;;;3.45;;
25758;SDS011;13604;52.496;13.456;2022-11-11T09:16:01;10.85;;;3.17;;
25758;SDS011;13604;52.496;13.456;2022-11-11T09:18:27;7.93;;;3.28;;
25758;SDS011;13604;52.496;13.456;2022-11-11T09:20:56;6.65;;;3.13;;
25758;SDS011;13604;52.496;13.456;2022-11-11T09:23:24;9.40;;;3.40;;
25758;SDS011;13604;52.496;13.456;2022-11-11T09:25:50;9.15;;;3.28;;
25758;SDS011;13604;52.496;13.456;2022-11-11T09:28:15;8.00;;;3.08;;
25758;SDS011;13604;52.496;13.456;2022-11-11T09:30:41;8.18;;;3.00;;
25758;SDS011;13604;52.496;13.456;2022-11-11T09:33:06;8.77;;;2.97;;
25758;SDS011;13604;52.496;13.456;2022-11-11T09:35:31;7.55;;;3.40;;
25758;SDS011;13604;52.496;13.456;2022-11-11T09:37:58;9.88;;;2.97;;
25758;SDS011;13604;52.496;13.456;2022-11-11T09:43:23;11.15;;;2.85;;
25758;SDS011;13604;52.496;13.456;2022-11-11T09:46:10;7.63;;;3.03;;
25758;SDS011;13604;52.496;13.456;2022-11-11T09:48:49;8.93;;;2.75;;
25758;SDS011;13604;52.496;13.456;2022-11-11T09:51:47;9.13;;;3.67;;
25758;SDS011;13604;52.496;13.456;2022-11-11T09:54:29;12.00;;;3.03;;
25758;SDS011;13604;52.496;13.456;2022-11-11T09:57:07;7.68;;;3.00;;
25758;SDS011;13604;52.496;13.456;2022-11-11T09:59:49;7.28;;;2.72;;
25758;SDS011;13604;52.496;13.456;2022-11-11T10:02:33;7.53;;;2.70;;
25758;SDS011;13604;52.496;13.456;2022-11-11T10:05:11;10.60;;;3.55;;
25758;SDS011;13604;52.496;13.456;2022-11-11T10:07:45;11.25;;;3.60;;
25758;SDS011;13604;52.496;13.456;2022-11-11T10:10:21;7.70;;;2.92;;
25758;SDS011;13604;52.496;13.456;2022-11-11T10:12:54;7.72;;;2.90;;
25758;SDS011;13604;52.496;13.456;2022-11-11T10:15:21;9.80;;;3.05;;
25758;SDS011;13604;52.496;13.456;2022-11-11T10:18:00;9.32;;;3.33;;
25758;SDS011;13604;52.496;13.456;2022-11-11T10:20:40;8.52;;;2.90;;
25758;SDS011;13604;52.496;13.456;2022-11-11T10:23:15;9.30;;;3.13;;
25758;SDS011;13604;52.496;13.456;2022-11-11T10:25:45;7.78;;;3.00;;
25758;SDS011;13604;52.496;13.456;2022-11-11T10:28:18;9.68;;;3.15;;
25758;SDS011;13604;52.496;13.456;2022-11-11T10:30:45;11.00;;;3.30;;
25758;SDS011;13604;52.496;13.456;2022-11-11T10:33:28;8.60;;;2.83;;
25758;SDS011;13604;52.496;13.456;2022-11-11T10:36:00;8.48;;;3.08;;
25758;SDS011;13604;52.496;13.456;2022-11-11T10:43:38;8.55;;;3.72;;
25758;SDS011;13604;52.496;13.456;2022-11-11T10:48:41;8.77;;;2.83;;
25758;SDS011;13604;52.496;13.456;2022-11-11T10:51:14;6.00;;;2.63;;
25758;SDS011;13604;52.496;13.456;2022-11-11T10:53:59;8.80;;;2.70;;
25758;SDS011;13604;52.496;13.456;2022-11-11T10:59:34;7.25;;;2.47;;
25758;SDS011;13604;52.496;13.456;2022-11-11T11:02:08;6.15;;;2.50;;
25758;SDS011;13604;52.496;13.456;2022-11-11T11:04:47;5.95;;;2.65;;
25758;SDS011;13604;52.496;13.456;2022-11-11T11:07:18;4.68;;;2.85;;
25758;SDS011;13604;52.496;13.456;2022-11-11T11:15:19;13.52;;;3.30;;
25758;SDS011;13604;52.496;13.456;2022-11-11T11:20:27;6.30;;;2.75;;
25758;SDS011;13604;52.496;13.456;2022-11-11T11:22:53;6.60;;;2.47;;
25758;SDS011;13604;52.496;13.456;2022-11-11T11:25:24;11.45;;;2.67;;
25758;SDS011;13604;52.496;13.456;2022-11-11T11:27:53;8.52;;;3.00;;
25758;SDS011;13604;52.496;13.456;2022-11-11T11:30:29;8.98;;;3.00;;
25758;SDS011;13604;52.496;13.456;2022-11-11T11:32:58;10.32;;;2.97;;
25758;SDS011;13604;52.496;13.456;2022-11-11T11:35:35;11.10;;;3.20;;
25758;SDS011;13604;52.496;13.456;2022-11-11T11:38:05;9.52;;;2.72;;
25758;SDS011;13604;52.496;13.456;2022-11-11T11:40:48;8.88;;;2.85;;
25758;SDS011;13604;52.496;13.456;2022-11-11T11:43:26;13.88;;;3.78;;
25758;SDS011;13604;52.496;13.456;2022-11-11T11:45:58;6.93;;;2.60;;
25758;SDS011;13604;52.496;13.456;2022-11-11T11:48:28;5.10;;;2.55;;
25758;SDS011;13604;52.496;13.456;2022-11-11T11:51:25;7.28;;;3.10;;
25758;SDS011;13604;52.496;13.456;2022-11-11T11:56:57;7.25;;;3.20;;
25758;SDS011;13604;52.496;13.456;2022-11-11T11:59:31;7.45;;;2.92;;
25758;SDS011;13604;52.496;13.456;2022-11-11T12:10:10;8.93;;;3.60;;
25758;SDS011;13604;52.496;13.456;2022-11-11T12:12:56;5.68;;;2.67;;
25758;SDS011;13604;52.496;13.456;2022-11-11T12:18:58;8.65;;;3.08;;
25758;SDS011;13604;52.496;13.456;2022-11-11T12:21:31;9.90;;;2.90;;
25758;SDS011;13604;52.496;13.456;2022-11-11T12:24:14;8.50;;;2.80;;
25758;SDS011;13604;52.496;13.456;2022-11-11T12:27:14;8.85;;;3.22;;
25758;SDS011;13604;52.496;13.456;2022-11-11T12:32:31;9.98;;;3.33;;
25758;SDS011;13604;52.496;13.456;2022-11-11T12:43:42;9.10;;;3.15;;
25758;SDS011;13604;52.496;13.456;2022-11-11T12:52:30;6.38;;;2.92;;
25758;SDS011;13604;52.496;13.456;2022-11-11T12:55:15;10.43;;;2.65;;
25758;SDS011;13604;52.496;13.456;2022-11-11T13:00:53;7.13;;;3.08;;
25758;SDS011;13604;52.496;13.456;2022-11-11T13:14:27;5.90;;;2.83;;
25758;SDS011;13604;52.496;13.456;2022-11-11T13:17:00;7.90;;;2.33;;
25758;SDS011;13604;52.496;13.456;2022-11-11T13:19:33;7.95;;;3.05;;
25758;SDS011;13604;52.496;13.456;2022-11-11T13:24:54;11.25;;;3.20;;
25758;SDS011;13604;52.496;13.456;2022-11-11T13:30:21;7.10;;;2.67;;
25758;SDS011;13604;52.496;13.456;2022-11-11T13:35:38;5.80;;;2.80;;
25758;SDS011;13604;52.496;13.456;2022-11-11T13:38:24;7.18;;;2.53;;
25758;SDS011;13604;52.496;13.456;2022-11-11T13:40:54;7.75;;;2.65;;
25758;SDS011;13604;52.496;13.456;2022-11-11T13:43:42;7.18;;;3.17;;
25758;SDS011;13604;52.496;13.456;2022-11-11T13:46:27;8.82;;;3.05;;
25758;SDS011;13604;52.496;13.456;2022-11-11T13:48:56;8.80;;;2.90;;
25758;SDS011;13604;52.496;13.456;2022-11-11T13:51:24;8.88;;;3.17;;
25758;SDS011;13604;52.496;13.456;2022-11-11T13:53:55;10.65;;;3.33;;
25758;SDS011;13604;52.496;13.456;2022-11-11T13:56:36;6.38;;;2.70;;
25758;SDS011;13604;52.496;13.456;2022-11-11T13:59:06;8.77;;;2.92;;
25758;SDS011;13604;52.496;13.456;2022-11-11T14:01:33;7.50;;;2.83;;
25758;SDS011;13604;52.496;13.456;2022-11-11T14:04:01;6.28;;;2.80;;
25758;SDS011;13604;52.496;13.456;2022-11-11T14:06:34;8.27;;;3.22;;
25758;SDS011;13604;52.496;13.456;2022-11-11T14:09:11;7.18;;;2.97;;
25758;SDS011;13604;52.496;13.456;2022-11-11T14:12:19;10.15;;;2.90;;
25758;SDS011;13604;52.496;13.456;2022-11-11T14:14:53;7.55;;;3.08;;
25758;SDS011;13604;52.496;13.456;2022-11-11T14:17:20;8.70;;;2.80;;
25758;SDS011;13604;52.496;13.456;2022-11-11T14:19:46;9.73;;;2.70;;
25758;SDS011;13604;52.496;13.456;2022-11-11T14:22:28;12.02;;;3.10;;
25758;SDS011;13604;52.496;13.456;2022-11-11T14:25:08;8.93;;;3.15;;
25758;SDS011;13604;52.496;13.456;2022-11-11T14:27:42;10.25;;;2.88;;
25758;SDS011;13604;52.496;13.456;2022-11-11T14:30:11;7.65;;;3.25;;
25758;SDS011;13604;52.496;13.456;2022-11-11T14:32:57;7.07;;;2.55;;
25758;SDS011;13604;52.496;13.456;2022-11-11T14:38:19;9.52;;;2.88;;
25758;SDS011;13604;52.496;13.456;2022-11-11T14:43:48;8.52;;;2.60;;
25758;SDS011;13604;52.496;13.456;2022-11-11T14:46:14;5.75;;;3.25;;
25758;SDS011;13604;52.496;13.456;2022-11-11T14:51:34;8.10;;;3.08;;
25758;SDS011;13604;52.496;13.456;2022-11-11T14:54:03;6.15;;;3.13;;
25758;SDS011;13604;52.496;13.456;2022-11-11T14:56:30;12.38;;;3.20;;
25758;SDS011;13604;52.496;13.456;2022-11-11T14:58:57;9.90;;;3.45;;
25758;SDS011;13604;52.496;13.456;2022-11-11T15:01:30;5.85;;;2.83;;
25758;SDS011;13604;52.496;13.456;2022-11-11T15:03:55;7.97;;;3.25;;
25758;SDS011;13604;52.496;13.456;2022-11-11T15:06:31;8.88;;;3.38;;
25758;SDS011;13604;52.496;13.456;2022-11-11T15:11:55;7.10;;;3.20;;
25758;SDS011;13604;52.496;13.456;2022-11-11T15:17:25;8.00;;;3.50;;
25758;SDS011;13604;52.496;13.456;2022-11-11T15:20:01;9.70;;;3.40;;
25758;SDS011;13604;52.496;13.456;2022-11-11T15:36:17;13.15;;;3.58;;
25758;SDS011;13604;52.496;13.456;2022-11-11T15:38:57;11.13;;;4.07;;
25758;SDS011;13604;52.496;13.456;2022-11-11T15:41:27;14.95;;;4.05;;
25758;SDS011;13604;52.496;13.456;2022-11-11T15:43:59;7.03;;;3.58;;
25758;SDS011;13604;52.496;13.456;2022-11-11T15:46:26;8.15;;;3.50;;
25758;SDS011;13604;52.496;13.456;2022-11-11T15:48:54;10.90;;;4.20;;
25758;SDS011;13604;52.496;13.456;2022-11-11T15:51:27;12.43;;;4.30;;
25758;SDS011;13604;52.496;13.456;2022-11-11T15:54:07;13.95;;;4.55;;
25758;SDS011;13604;52.496;13.456;2022-11-11T15:56:34;10.30;;;4.80;;
25758;SDS011;13604;52.496;13.456;2022-11-11T15:59:14;12.38;;;4.20;;
25758;SDS011;13604;52.496;13.456;2022-11-11T16:01:53;11.30;;;4.70;;
25758;SDS011;13604;52.496;13.456;2022-11-11T16:04:19;9.02;;;4.43;;
25758;SDS011;13604;52.496;13.456;2022-11-11T16:06:47;9.05;;;3.92;;
25758;SDS011;13604;52.496;13.456;2022-11-11T16:09:13;7.22;;;3.65;;
25758;SDS011;13604;52.496;13.456;2022-11-11T16:11:43;8.60;;;4.43;;
25758;SDS011;13604;52.496;13.456;2022-11-11T16:14:13;13.45;;;4.13;;
25758;SDS011;13604;52.496;13.456;2022-11-11T16:16:46;11.98;;;4.50;;
25758;SDS011;13604;52.496;13.456;2022-11-11T16:19:23;11.13;;;4.20;;
25758;SDS011;13604;52.496;13.456;2022-11-11T16:24:40;12.38;;;4.57;;
25758;SDS011;13604;52.496;13.456;2022-11-11T16:27:16;8.98;;;4.47;;
25758;SDS011;13604;52.496;13.456;2022-11-11T16:29:44;13.60;;;4.75;;
25758;SDS011;13604;52.496;13.456;2022-11-11T16:32:17;11.02;;;4.05;;
25758;SDS011;13604;52.496;13.456;2022-11-11T16:34:55;11.80;;;4.35;;
25758;SDS011;13604;52.496;13.456;2022-11-11T16:37:21;11.95;;;4.90;;
25758;SDS011;13604;52.496;13.456;2022-11-11T16:39:46;9.18;;;4.00;;
25758;SDS011;13604;52.496;13.456;2022-11-11T16:42:19;13.05;;;4.55;;